createdAt,value
2019-05-21T00:00:51.382Z,98.91
2019-05-21T00:03:19.143Z,98.72
2019-05-21T00:05:46.914Z,98.46
2019-05-21T00:08:14.692Z,98.48
2019-05-21T00:10:42.453Z,98.27
2019-05-21T00:13:10.196Z,98.11
2019-05-21T00:15:38.015Z,98.28
2019-05-21T00:18:05.775Z,98.64
2019-05-21T00:20:33.513Z,98.36
2019-05-21T00:23:01.361Z,98.64
2019-05-21T00:25:29.084Z,98.94
2019-05-21T00:27:59.857Z,98.58
2019-05-21T00:30:45.983Z,98.77
2019-05-21T00:33:31.854Z,98.80
2019-05-21T00:36:18.200Z,98.77
2019-05-21T00:39:04.299Z,98.94
2019-05-21T00:41:50.122Z,98.86
2019-05-21T00:44:17.883Z,98.88
2019-05-21T00:46:45.844Z,98.89
2019-05-21T00:49:13.669Z,99.22
2019-05-21T00:51:41.630Z,98.96
2019-05-21T00:54:09.469Z,98.82
2019-05-21T00:56:37.246Z,98.96
2019-05-21T00:59:05.003Z,99.02
2019-05-21T01:01:32.758Z,99.16
2019-05-21T01:04:00.547Z,98.87
2019-05-21T01:06:28.307Z,98.96
2019-05-21T01:08:56.059Z,98.71
2019-05-21T01:11:23.870Z,98.49
2019-05-21T01:13:54.803Z,98.48
2019-05-21T01:16:22.738Z,98.24
2019-05-21T01:18:50.913Z,97.94
2019-05-21T01:21:18.649Z,97.44
2019-05-21T01:23:46.399Z,97.38
2019-05-21T01:26:14.186Z,97.57
2019-05-21T01:28:42.131Z,97.54
2019-05-21T01:31:14.361Z,97.49
2019-05-21T01:33:42.337Z,97.76
2019-05-21T01:36:10.158Z,98.01
2019-05-21T01:38:37.929Z,98.05
2019-05-21T01:41:05.692Z,98.31
2019-05-21T01:43:33.440Z,98.12
2019-05-21T01:46:01.192Z,97.86
2019-05-21T01:48:30.960Z,98.04
2019-05-21T01:50:58.783Z,98.12
2019-05-21T01:53:27.323Z,98.42
2019-05-21T01:55:55.823Z,98.23
2019-05-21T01:58:23.586Z,98.45
2019-05-21T02:00:51.395Z,98.64
2019-05-21T02:03:19.256Z,98.62
2019-05-21T02:05:46.981Z,98.39
2019-05-21T02:08:14.732Z,98.35
2019-05-21T02:10:42.501Z,98.23
2019-05-21T02:13:10.260Z,97.85
2019-05-21T02:15:38.084Z,97.25
2019-05-21T02:18:05.913Z,97.33
2019-05-21T02:20:33.664Z,97.20
2019-05-21T02:23:01.405Z,96.97
2019-05-21T02:25:29.197Z,97.05
2019-05-21T02:27:56.972Z,96.92
2019-05-21T02:30:24.743Z,96.79
2019-05-21T02:32:52.519Z,96.47
2019-05-21T02:35:20.266Z,96.55
2019-05-21T02:37:48.022Z,96.47
2019-05-21T02:40:15.822Z,96.39
2019-05-21T02:42:43.562Z,96.44
2019-05-21T02:45:11.390Z,96.42
2019-05-21T02:47:39.188Z,96.50
2019-05-21T02:50:07.489Z,96.73
2019-05-21T02:52:35.234Z,96.82
2019-05-21T02:55:03.106Z,96.94
2019-05-21T02:57:43.098Z,96.87
2019-05-21T03:00:28.842Z,96.98
2019-05-21T03:02:56.949Z,96.85
2019-05-21T03:05:24.704Z,96.87
2019-05-21T03:07:52.487Z,96.71
2019-05-21T03:10:20.407Z,96.67
2019-05-21T03:12:48.281Z,96.85
2019-05-21T03:15:16.074Z,96.84
2019-05-21T03:17:43.810Z,96.69
2019-05-21T03:20:11.576Z,96.50
2019-05-21T03:22:39.346Z,96.51
2019-05-21T03:25:07.175Z,96.40
2019-05-21T03:27:34.935Z,96.47
2019-05-21T03:30:02.821Z,96.35
2019-05-21T03:32:30.607Z,96.38
2019-05-21T03:34:58.895Z,96.14
2019-05-21T03:37:26.723Z,96.46
2019-05-21T03:39:54.463Z,96.69
2019-05-21T03:42:22.226Z,96.92
2019-05-21T03:44:59.819Z,96.75
2019-05-21T03:47:19.361Z,96.94
2019-05-21T03:49:47.104Z,97.24
2019-05-21T03:52:16.025Z,97.08
2019-05-21T03:54:43.780Z,97.24
2019-05-21T03:57:11.528Z,97.24
2019-05-21T03:59:39.295Z,97.29
2019-05-21T04:02:07.036Z,97.10
2019-05-21T04:04:34.779Z,97.02
2019-05-21T04:07:02.556Z,96.26
2019-05-21T04:09:30.296Z,96.76
2019-05-21T04:11:58.217Z,97.21
2019-05-21T04:14:33.604Z,97.03
2019-05-21T04:17:05.870Z,96.39
2019-05-21T04:19:38.240Z,96.83
2019-05-21T04:22:07.457Z,96.69
2019-05-21T04:24:35.194Z,96.00
2019-05-21T04:27:03.007Z,95.64
2019-05-21T04:29:30.762Z,95.81
2019-05-21T04:31:58.506Z,95.92
2019-05-21T04:34:26.339Z,96.00
2019-05-21T04:37:09.369Z,95.66
2019-05-21T04:39:23.483Z,95.21
2019-05-21T04:41:51.279Z,95.21
2019-05-21T04:44:19.027Z,94.83
2019-05-21T04:46:46.780Z,94.51
2019-05-21T04:49:14.617Z,94.51
2019-05-21T04:51:42.362Z,94.45
2019-05-21T04:54:11.265Z,93.94
2019-05-21T04:56:39.047Z,94.31
2019-05-21T04:59:06.815Z,94.82
2019-05-21T05:01:34.556Z,94.63
2019-05-21T05:04:02.359Z,94.33
2019-05-21T05:06:30.104Z,94.23
2019-05-21T05:08:57.854Z,94.14
2019-05-21T05:11:25.640Z,93.73
2019-05-21T05:13:53.393Z,93.74
2019-05-21T05:16:21.148Z,93.15
2019-05-21T05:18:48.938Z,93.06
2019-05-21T05:21:16.749Z,93.23
2019-05-21T05:23:44.497Z,93.15
2019-05-21T05:26:12.352Z,92.90
2019-05-21T05:28:40.100Z,92.92
2019-05-21T05:31:07.847Z,92.16
2019-05-21T05:33:35.641Z,91.00
2019-05-21T05:36:03.452Z,91.45
2019-05-21T05:38:31.189Z,91.88
2019-05-21T05:40:58.984Z,91.77
2019-05-21T05:43:26.746Z,91.56
2019-05-21T05:45:54.505Z,91.51
2019-05-21T05:48:22.438Z,90.77
2019-05-21T05:50:51.828Z,91.10
2019-05-21T05:53:19.576Z,91.22
2019-05-21T05:55:47.673Z,90.78
2019-05-21T05:58:15.439Z,90.35
2019-05-21T06:00:43.172Z,89.53
2019-05-21T06:03:11.005Z,89.56
2019-05-21T06:05:38.813Z,89.94
2019-05-21T06:08:06.539Z,90.09
2019-05-21T06:10:34.344Z,89.91
2019-05-21T06:13:02.081Z,89.99
2019-05-21T06:15:29.826Z,89.96
2019-05-21T06:17:57.641Z,90.36
2019-05-21T06:20:25.454Z,90.21
2019-05-21T06:22:53.217Z,89.83
2019-05-21T06:25:21.167Z,89.68
2019-05-21T06:27:48.928Z,89.12
2019-05-21T06:30:17.643Z,87.89
2019-05-21T06:32:45.452Z,87.57
2019-05-21T06:35:14.673Z,87.11
2019-05-21T06:37:42.445Z,85.62
2019-05-21T06:40:10.600Z,85.96
2019-05-21T06:42:38.331Z,85.97
2019-05-21T06:45:06.852Z,85.12
2019-05-21T06:47:34.643Z,84.90
2019-05-21T06:50:02.455Z,85.12
2019-05-21T06:52:30.197Z,85.27
2019-05-21T06:54:58.000Z,85.03
2019-05-21T06:57:26.166Z,84.66
2019-05-21T06:59:53.895Z,84.37
2019-05-21T07:02:21.673Z,84.51
2019-05-21T07:04:49.420Z,84.07
2019-05-21T07:07:17.176Z,83.75
2019-05-21T07:09:44.953Z,83.41
2019-05-21T07:12:12.696Z,84.18
2019-05-21T07:14:40.434Z,84.61
2019-05-21T07:17:08.224Z,84.64
2019-05-21T07:19:35.991Z,84.23
2019-05-21T07:22:12.672Z,84.12
2019-05-21T07:24:33.226Z,83.27
2019-05-21T07:27:00.979Z,83.06
2019-05-21T07:29:28.723Z,83.06
2019-05-21T07:31:56.510Z,83.67
2019-05-21T07:34:24.256Z,81.64
2019-05-21T07:36:51.991Z,82.35
2019-05-21T07:39:19.797Z,81.86
2019-05-21T07:41:47.539Z,81.49
2019-05-21T07:44:15.273Z,81.19
2019-05-21T07:46:43.048Z,80.75
2019-05-21T07:49:10.843Z,80.01
2019-05-21T07:51:38.597Z,79.82
2019-05-21T07:54:06.370Z,80.05
2019-05-21T07:56:34.118Z,80.14
2019-05-21T07:59:03.123Z,81.23
2019-05-21T08:01:30.901Z,80.30
2019-05-21T08:03:58.636Z,80.26
2019-05-21T08:06:26.423Z,80.45
2019-05-21T08:09:11.831Z,80.19
2019-05-21T08:11:23.584Z,80.28
2019-05-21T08:13:51.339Z,78.99
2019-05-21T08:16:19.122Z,79.55
2019-05-21T08:18:46.862Z,79.61
2019-05-21T08:21:14.599Z,78.58
2019-05-21T08:23:42.417Z,78.52
2019-05-21T08:26:10.128Z,78.28
2019-05-21T08:28:37.893Z,78.83
2019-05-21T08:31:05.675Z,78.15
2019-05-21T08:33:33.450Z,77.74
2019-05-21T08:36:01.194Z,78.08
2019-05-21T08:38:29.005Z,79.44
2019-05-21T08:40:56.747Z,77.52
2019-05-21T08:43:24.487Z,76.72
2019-05-21T08:45:52.282Z,75.20
2019-05-21T08:48:20.037Z,76.33
2019-05-21T08:50:47.781Z,76.99
2019-05-21T08:53:15.550Z,76.00
2019-05-21T08:55:43.294Z,77.02
2019-05-21T08:58:11.025Z,77.22
2019-05-21T09:00:39.019Z,77.58
2019-05-21T09:03:06.787Z,75.85
2019-05-21T09:05:34.524Z,74.86
2019-05-21T09:08:02.323Z,75.09
2019-05-21T09:10:30.056Z,73.37
2019-05-21T09:12:57.821Z,73.18
2019-05-21T09:15:25.645Z,72.90
2019-05-21T09:17:53.396Z,73.33
2019-05-21T09:20:21.199Z,73.60
2019-05-21T09:22:49.025Z,72.47
2019-05-21T09:25:16.812Z,72.79
2019-05-21T09:27:44.540Z,73.29
2019-05-21T09:30:12.396Z,72.18
2019-05-21T09:32:40.167Z,72.09
2019-05-21T09:35:07.936Z,71.42
2019-05-21T09:37:35.721Z,71.24
2019-05-21T09:40:05.148Z,70.63
2019-05-21T09:42:32.922Z,71.44
2019-05-21T09:45:00.716Z,71.10
2019-05-21T09:47:28.458Z,69.04
2019-05-21T09:49:56.219Z,69.49
2019-05-21T09:52:26.783Z,69.93
2019-05-21T09:54:54.565Z,68.57
2019-05-21T09:57:23.979Z,68.87
2019-05-21T09:59:53.403Z,67.84
2019-05-21T10:02:23.125Z,68.53
2019-05-21T10:04:50.918Z,67.59
2019-05-21T10:07:36.298Z,67.14
2019-05-21T10:09:48.334Z,67.86
2019-05-21T10:12:16.071Z,68.09
2019-05-21T10:14:43.859Z,68.50
2019-05-21T10:17:11.601Z,65.86
2019-05-21T10:19:39.353Z,64.78
2019-05-21T10:22:07.243Z,63.61
2019-05-21T10:24:35.043Z,64.17
2019-05-21T10:27:03.500Z,63.91
2019-05-21T10:29:31.563Z,62.71
2019-05-21T10:31:59.335Z,62.46
2019-05-21T10:34:27.081Z,62.02
2019-05-21T10:36:54.878Z,62.01
2019-05-21T10:39:22.634Z,62.09
2019-05-21T10:41:50.394Z,63.10
2019-05-21T10:44:18.212Z,62.11
2019-05-21T10:46:45.943Z,61.18
2019-05-21T10:49:13.705Z,59.94
2019-05-21T10:51:41.509Z,60.90
2019-05-21T10:54:09.274Z,60.12
2019-05-21T10:56:47.268Z,61.09
2019-05-21T10:59:06.444Z,62.68
2019-05-21T11:01:38.535Z,62.91
2019-05-21T11:04:14.825Z,62.82
2019-05-21T11:06:44.202Z,63.16
2019-05-21T11:09:16.152Z,63.22
2019-05-21T11:11:43.961Z,61.58
2019-05-21T11:14:11.747Z,60.50
2019-05-21T11:16:39.471Z,60.13
2019-05-21T11:19:07.427Z,60.51
2019-05-21T11:21:35.183Z,60.44
2019-05-21T11:24:02.982Z,60.79
2019-05-21T11:26:30.872Z,57.93
2019-05-21T11:28:58.609Z,58.87
2019-05-21T11:31:26.361Z,57.16
2019-05-21T11:33:54.157Z,55.23
2019-05-21T11:36:21.926Z,54.55
2019-05-21T11:38:49.663Z,54.16
2019-05-21T11:41:17.453Z,52.75
2019-05-21T11:43:45.193Z,51.56
2019-05-21T11:46:12.942Z,51.10
2019-05-21T11:48:40.781Z,50.77
2019-05-21T11:51:12.380Z,50.73
2019-05-21T11:53:37.925Z,51.51
2019-05-21T11:56:05.702Z,51.53
2019-05-21T11:58:39.405Z,51.76
2019-05-21T12:01:02.869Z,51.99
2019-05-21T12:03:30.819Z,52.83
2019-05-21T12:05:58.763Z,53.46
2019-05-21T12:08:26.511Z,53.26
2019-05-21T12:10:54.281Z,53.32
2019-05-21T12:13:22.034Z,53.30
2019-05-21T12:15:49.780Z,54.02
2019-05-21T12:18:17.570Z,53.13
2019-05-21T12:20:45.310Z,54.03
2019-05-21T12:23:13.165Z,53.59
2019-05-21T12:25:40.957Z,53.50
2019-05-21T12:28:11.081Z,53.99
2019-05-21T12:30:38.132Z,54.23
2019-05-21T12:33:05.916Z,54.37
2019-05-21T12:35:33.678Z,54.62
2019-05-21T12:38:01.414Z,54.89
2019-05-21T12:40:29.272Z,54.63
2019-05-21T12:42:57.017Z,54.32
2019-05-21T12:45:24.754Z,54.89
2019-05-21T12:47:52.573Z,55.06
2019-05-21T12:50:20.324Z,54.91
2019-05-21T12:52:48.081Z,55.08
2019-05-21T12:55:15.945Z,56.40
2019-05-21T12:57:43.705Z,56.49
2019-05-21T13:00:13.026Z,56.69
2019-05-21T13:02:40.794Z,56.97
2019-05-21T13:05:11.348Z,57.08
2019-05-21T13:07:38.398Z,58.22
2019-05-21T13:10:06.562Z,58.43
2019-05-21T13:12:34.303Z,58.37
2019-05-21T13:15:02.065Z,57.99
2019-05-21T13:17:30.033Z,58.17
2019-05-21T13:19:57.794Z,57.42
2019-05-21T13:22:25.531Z,57.75
2019-05-21T13:24:53.319Z,59.08
2019-05-21T13:27:21.046Z,58.23
2019-05-21T13:29:48.801Z,58.59
2019-05-21T13:32:16.601Z,58.96
2019-05-21T13:34:44.363Z,59.00
2019-05-21T13:37:12.112Z,59.46
2019-05-21T13:39:49.379Z,59.01
2019-05-21T13:42:09.302Z,59.54
2019-05-21T13:44:37.064Z,58.37
2019-05-21T13:47:04.867Z,59.08
2019-05-21T13:49:32.630Z,58.84
2019-05-21T13:52:00.379Z,58.77
2019-05-21T13:54:28.201Z,58.48
2019-05-21T13:56:56.015Z,57.86
2019-05-21T13:59:23.798Z,58.33
2019-05-21T14:01:51.584Z,58.09
2019-05-21T14:04:19.409Z,57.69
2019-05-21T14:06:47.123Z,57.11
2019-05-21T14:09:15.078Z,57.13
2019-05-21T14:11:42.823Z,57.18
2019-05-21T14:14:10.570Z,57.62
2019-05-21T14:16:38.428Z,56.38
2019-05-21T14:19:06.297Z,56.22
2019-05-21T14:21:34.119Z,55.54
2019-05-21T14:24:01.842Z,55.93
2019-05-21T14:26:30.071Z,54.73
2019-05-21T14:28:57.797Z,55.87
2019-05-21T14:31:25.593Z,55.49
2019-05-21T14:33:53.387Z,54.96
2019-05-21T14:36:22.369Z,54.13
2019-05-21T14:38:50.584Z,55.08
2019-05-21T14:41:18.353Z,55.66
2019-05-21T14:43:46.194Z,54.63
2019-05-21T14:46:13.965Z,53.09
2019-05-21T14:48:41.729Z,52.17
2019-05-21T14:51:13.298Z,52.52
2019-05-21T14:53:38.942Z,52.66
2019-05-21T14:56:06.711Z,52.48
2019-05-21T14:58:34.632Z,51.71
2019-05-21T15:01:02.455Z,52.62
2019-05-21T15:03:30.212Z,51.61
2019-05-21T15:05:57.977Z,51.54
2019-05-21T15:08:25.798Z,51.05
2019-05-21T15:10:53.766Z,50.47
2019-05-21T15:13:21.511Z,50.56
2019-05-21T15:15:49.285Z,51.29
2019-05-21T15:18:22.143Z,51.57
2019-05-21T15:20:48.983Z,51.67
2019-05-21T15:23:16.817Z,51.35
2019-05-21T15:25:44.569Z,50.17
2019-05-21T15:28:12.374Z,49.89
2019-05-21T15:30:40.124Z,50.64
2019-05-21T15:33:07.873Z,51.32
2019-05-21T15:35:35.674Z,51.65
2019-05-21T15:38:03.412Z,52.11
2019-05-21T15:40:31.171Z,52.88
2019-05-21T15:42:58.945Z,53.41
2019-05-21T15:45:26.703Z,53.18
2019-05-21T15:47:54.439Z,53.63
2019-05-21T15:50:22.219Z,53.84
2019-05-21T15:52:49.967Z,53.36
2019-05-21T15:55:17.726Z,53.51
2019-05-21T15:57:45.504Z,52.93
2019-05-21T16:00:13.414Z,53.24
2019-05-21T16:02:41.162Z,53.97
2019-05-21T16:05:08.948Z,54.25
2019-05-21T16:07:36.709Z,54.56
2019-05-21T16:10:07.273Z,53.74
2019-05-21T16:12:35.604Z,54.28
2019-05-21T16:15:04.641Z,54.46
2019-05-21T16:17:32.376Z,54.75
2019-05-21T16:20:00.181Z,55.06
2019-05-21T16:22:27.952Z,55.41
2019-05-21T16:24:55.704Z,55.55
2019-05-21T16:27:23.480Z,55.55
2019-05-21T16:29:51.255Z,55.01
2019-05-21T16:32:18.993Z,55.27
2019-05-21T16:34:46.768Z,55.47
2019-05-21T16:37:14.512Z,55.34
2019-05-21T16:39:42.266Z,55.50
2019-05-21T16:42:10.662Z,53.97
2019-05-21T16:44:38.471Z,54.00
2019-05-21T16:47:06.249Z,54.26
2019-05-21T16:49:34.039Z,54.48
2019-05-21T16:52:01.796Z,54.08
2019-05-21T16:54:29.528Z,53.98
2019-05-21T16:56:57.327Z,53.80
2019-05-21T16:59:25.066Z,53.57
2019-05-21T17:01:52.840Z,53.10
2019-05-21T17:04:20.626Z,53.18
2019-05-21T17:06:48.388Z,52.54
2019-05-21T17:09:16.127Z,52.60
2019-05-21T17:11:57.515Z,52.89
2019-05-21T17:14:13.612Z,53.19
2019-05-21T17:16:41.362Z,53.68
2019-05-21T17:19:09.239Z,54.35
2019-05-21T17:21:37.024Z,55.44
2019-05-21T17:24:04.748Z,56.38
2019-05-21T17:26:32.561Z,57.35
2019-05-21T17:29:00.485Z,58.42
2019-05-21T17:31:28.216Z,59.20
2019-05-21T17:33:56.168Z,60.37
2019-05-21T17:36:24.076Z,61.01
2019-05-21T17:38:51.833Z,61.89
2019-05-21T17:41:19.601Z,63.10
2019-05-21T17:43:47.346Z,63.57
2019-05-21T17:46:15.105Z,63.94
2019-05-21T17:48:42.911Z,64.61
2019-05-21T17:51:10.673Z,64.99
2019-05-21T17:53:38.442Z,65.79
2019-05-21T17:56:06.390Z,66.60
2019-05-21T17:58:34.147Z,67.07
2019-05-21T18:01:03.546Z,68.09
2019-05-21T18:03:32.013Z,68.42
2019-05-21T18:05:59.731Z,68.60
2019-05-21T18:08:27.867Z,68.78
2019-05-21T18:10:55.824Z,68.77
2019-05-21T18:13:24.751Z,69.39
2019-05-21T18:15:53.816Z,69.58
2019-05-21T18:18:22.275Z,69.31
2019-05-21T18:20:50.189Z,69.53
2019-05-21T18:23:18.041Z,69.83
2019-05-21T18:25:45.837Z,69.98
2019-05-21T18:28:13.586Z,70.06
2019-05-21T18:30:41.340Z,70.10
2019-05-21T18:33:09.276Z,70.23
2019-05-21T18:35:37.134Z,70.48
2019-05-21T18:38:04.868Z,70.37
2019-05-21T18:40:32.656Z,70.97
2019-05-21T18:43:00.402Z,71.09
2019-05-21T18:45:28.162Z,71.18
2019-05-21T18:47:55.940Z,71.46
2019-05-21T18:50:35.734Z,72.14
2019-05-21T18:52:53.113Z,71.66
2019-05-21T18:55:20.889Z,72.38
2019-05-21T18:57:48.636Z,72.20
2019-05-21T19:00:16.385Z,72.62
2019-05-21T19:02:44.367Z,73.03
2019-05-21T19:05:12.099Z,73.78
2019-05-21T19:07:39.853Z,74.04
2019-05-21T19:10:09.187Z,74.57
2019-05-21T19:12:38.551Z,74.63
2019-05-21T19:15:07.482Z,74.69
2019-05-21T19:17:36.329Z,74.51
2019-05-21T19:20:05.850Z,74.51
2019-05-21T19:22:33.669Z,75.00
2019-05-21T19:25:01.511Z,75.21
2019-05-21T19:27:29.245Z,75.17
2019-05-21T19:29:57.073Z,74.94
2019-05-21T19:32:24.885Z,75.08
2019-05-21T19:34:52.620Z,75.43
2019-05-21T19:37:20.390Z,76.06
2019-05-21T19:39:49.795Z,76.31
2019-05-21T19:42:17.538Z,76.56
2019-05-21T19:44:45.284Z,76.92
2019-05-21T19:47:13.082Z,77.26
2019-05-21T19:49:40.850Z,77.24
2019-05-21T19:52:08.591Z,77.78
2019-05-21T19:54:36.391Z,78.10
2019-05-21T19:57:04.504Z,77.83
2019-05-21T19:59:32.265Z,78.12
2019-05-21T20:02:00.134Z,78.06
2019-05-21T20:04:28.241Z,78.07
2019-05-21T20:06:56.566Z,78.13
2019-05-21T20:09:26.901Z,78.02
2019-05-21T20:11:54.724Z,78.04
2019-05-21T20:14:22.721Z,78.32
2019-05-21T20:16:50.862Z,78.30
2019-05-21T20:19:19.512Z,78.81
2019-05-21T20:21:47.331Z,78.81
2019-05-21T20:24:15.690Z,79.34
2019-05-21T20:26:43.592Z,79.51
2019-05-21T20:29:11.445Z,79.69
2019-05-21T20:31:40.006Z,79.73
2019-05-21T20:34:09.965Z,79.73
2019-05-21T20:36:40.651Z,79.65
2019-05-21T20:39:09.100Z,79.26
2019-05-21T20:41:36.921Z,79.56
2019-05-21T20:44:06.385Z,79.38
2019-05-21T20:46:34.246Z,79.58
2019-05-21T20:49:02.250Z,79.60
2019-05-21T20:51:31.167Z,79.77
2019-05-21T20:53:59.188Z,79.63
2019-05-21T20:56:27.015Z,80.13
2019-05-21T20:58:54.748Z,80.35
2019-05-21T21:01:22.588Z,80.44
2019-05-21T21:03:50.998Z,80.59
2019-05-21T21:06:34.353Z,80.60
2019-05-21T21:08:48.181Z,80.64
2019-05-21T21:11:17.445Z,80.61
2019-05-21T21:13:45.220Z,80.84
2019-05-21T21:16:13.730Z,80.76
2019-05-21T21:18:41.704Z,80.88
2019-05-21T21:21:09.593Z,81.45
2019-05-21T21:23:38.830Z,81.75
2019-05-21T21:26:06.553Z,81.97
2019-05-21T21:28:34.311Z,82.24
2019-05-21T21:31:02.458Z,82.31
2019-05-21T21:33:31.956Z,82.33
2019-05-21T21:35:59.794Z,82.54
2019-05-21T21:38:28.953Z,82.82
2019-05-21T21:40:56.738Z,82.95
2019-05-21T21:43:24.791Z,83.04
2019-05-21T21:45:52.661Z,83.00
2019-05-21T21:48:20.387Z,83.03
2019-05-21T21:50:48.499Z,82.97
2019-05-21T21:53:16.286Z,82.85
2019-05-21T21:55:44.037Z,82.79
2019-05-21T21:58:11.775Z,82.86
2019-05-21T22:00:42.831Z,82.44
2019-05-21T22:03:10.941Z,82.50
2019-05-21T22:05:39.100Z,82.57
2019-05-21T22:08:07.613Z,82.11
2019-05-21T22:10:37.008Z,81.90
2019-05-21T22:13:04.965Z,82.00
2019-05-21T22:15:33.128Z,82.19
2019-05-21T22:18:00.870Z,82.24
2019-05-21T22:20:29.282Z,82.07
2019-05-21T22:22:57.395Z,82.08
2019-05-21T22:25:25.285Z,82.08
2019-05-21T22:27:53.020Z,82.04
2019-05-21T22:30:21.387Z,82.08
2019-05-21T22:32:49.136Z,82.10
2019-05-21T22:35:17.047Z,82.08
2019-05-21T22:37:44.814Z,81.80
2019-05-21T22:40:13.231Z,81.89
2019-05-21T22:42:41.138Z,82.24
2019-05-21T22:45:10.575Z,82.38
2019-05-21T22:47:38.312Z,82.58
2019-05-21T22:50:06.057Z,82.63
2019-05-21T22:52:33.816Z,82.92
2019-05-21T22:55:01.563Z,82.99
2019-05-21T22:57:29.292Z,83.14
2019-05-21T22:59:57.092Z,83.15
2019-05-21T23:02:26.484Z,83.39
2019-05-21T23:04:54.384Z,83.46
2019-05-21T23:07:22.254Z,83.52
2019-05-21T23:09:49.999Z,83.67
2019-05-21T23:12:18.300Z,83.90
2019-05-21T23:14:46.082Z,84.07
2019-05-21T23:17:13.906Z,84.10
2019-05-21T23:19:42.137Z,84.10
2019-05-21T23:22:11.566Z,84.05
2019-05-21T23:24:40.591Z,84.12
2019-05-21T23:27:08.901Z,84.29
2019-05-21T23:29:37.805Z,84.53
2019-05-21T23:32:07.205Z,84.42
2019-05-21T23:34:34.933Z,84.50
2019-05-21T23:37:04.371Z,84.56
2019-05-21T23:39:33.746Z,84.60
2019-05-21T23:42:01.507Z,84.82
2019-05-21T23:44:29.303Z,84.61
2019-05-21T23:46:57.430Z,84.79
2019-05-21T23:49:25.176Z,84.71
2019-05-21T23:51:52.944Z,84.85
2019-05-21T23:54:20.862Z,85.12
2019-05-21T23:56:48.782Z,85.01
2019-05-21T23:59:16.598Z,85.23
